sensor_id;sensor_type;location;lat;lon;timestamp;temperature;humidity
1021;DHT22;499;42.648;23.270;2023-10-31T00:01:34;10.20;73.20
1021;DHT22;499;42.648;23.270;2023-10-31T00:04:18;10.10;72.60
1021;DHT22;499;42.648;23.270;2023-10-31T00:06:57;10.00;71.10
1021;DHT22;499;42.648;23.270;2023-10-31T00:09:43;10.00;73.00
1021;DHT22;499;42.648;23.270;2023-10-31T00:12:27;9.90;76.20
1021;DHT22;499;42.648;23.270;2023-10-31T00:15:04;9.90;78.30
1021;DHT22;499;42.648;23.270;2023-10-31T00:17:43;9.80;78.60
1021;DHT22;499;42.648;23.270;2023-10-31T00:20:18;9.70;76.90
1021;DHT22;499;42.648;23.270;2023-10-31T00:22:58;9.70;74.40
1021;DHT22;499;42.648;23.270;2023-10-31T00:25:36;9.70;76.20
1021;DHT22;499;42.648;23.270;2023-10-31T00:28:18;9.60;78.40
1021;DHT22;499;42.648;23.270;2023-10-31T00:30:56;9.60;81.50
1021;DHT22;499;42.648;23.270;2023-10-31T00:33:35;9.60;84.50
1021;DHT22;499;42.648;23.270;2023-10-31T00:36:15;9.60;85.20
1021;DHT22;499;42.648;23.270;2023-10-31T00:38:53;9.60;85.40
1021;DHT22;499;42.648;23.270;2023-10-31T00:41:38;9.60;87.60
1021;DHT22;499;42.648;23.270;2023-10-31T00:44:19;9.60;87.60
1021;DHT22;499;42.648;23.270;2023-10-31T00:47:03;9.60;87.60
1021;DHT22;499;42.648;23.270;2023-10-31T00:49:43;9.50;87.10
1021;DHT22;499;42.648;23.270;2023-10-31T00:52:20;9.50;86.80
1021;DHT22;499;42.648;23.270;2023-10-31T00:54:59;9.50;83.40
1021;DHT22;499;42.648;23.270;2023-10-31T00:57:41;9.50;80.80
1021;DHT22;499;42.648;23.270;2023-10-31T01:00:22;9.40;80.70
1021;DHT22;499;42.648;23.270;2023-10-31T01:03:22;9.40;82.90
1021;DHT22;499;42.648;23.270;2023-10-31T01:06:10;9.40;84.00
1021;DHT22;499;42.648;23.270;2023-10-31T01:08:49;9.40;86.10
1021;DHT22;499;42.648;23.270;2023-10-31T01:11:27;9.40;88.50
1021;DHT22;499;42.648;23.270;2023-10-31T01:14:23;9.40;90.90
1021;DHT22;499;42.648;23.270;2023-10-31T01:17:09;9.40;92.30
1021;DHT22;499;42.648;23.270;2023-10-31T01:20:00;9.30;91.50
1021;DHT22;499;42.648;23.270;2023-10-31T01:22:51;9.30;91.20
1021;DHT22;499;42.648;23.270;2023-10-31T01:25:46;9.30;91.40
1021;DHT22;499;42.648;23.270;2023-10-31T01:28:43;9.30;92.90
1021;DHT22;499;42.648;23.270;2023-10-31T01:31:29;9.30;94.10
1021;DHT22;499;42.648;23.270;2023-10-31T01:34:18;9.30;93.30
1021;DHT22;499;42.648;23.270;2023-10-31T01:37:00;9.30;94.30
1021;DHT22;499;42.648;23.270;2023-10-31T01:39:42;9.30;95.00
1021;DHT22;499;42.648;23.270;2023-10-31T01:42:17;9.50;95.60
1021;DHT22;499;42.648;23.270;2023-10-31T01:45:08;9.30;94.90
1021;DHT22;499;42.648;23.270;2023-10-31T01:47:54;9.20;96.80
1021;DHT22;499;42.648;23.270;2023-10-31T01:50:33;9.20;98.50
1021;DHT22;499;42.648;23.270;2023-10-31T01:53:09;9.10;99.50
1021;DHT22;499;42.648;23.270;2023-10-31T01:55:51;9.10;99.90
1021;DHT22;499;42.648;23.270;2023-10-31T01:58:42;9.10;99.90
1021;DHT22;499;42.648;23.270;2023-10-31T02:01:23;9.00;99.90
1021;DHT22;499;42.648;23.270;2023-10-31T02:04:04;9.00;99.90
1021;DHT22;499;42.648;23.270;2023-10-31T02:06:39;9.10;99.90
1021;DHT22;499;42.648;23.270;2023-10-31T02:09:18;9.10;99.90
1021;DHT22;499;42.648;23.270;2023-10-31T02:12:03;9.20;99.10
1021;DHT22;499;42.648;23.270;2023-10-31T02:14:36;9.10;94.80
1021;DHT22;499;42.648;23.270;2023-10-31T02:17:22;9.10;94.30
1021;DHT22;499;42.648;23.270;2023-10-31T02:20:15;9.10;92.80
1021;DHT22;499;42.648;23.270;2023-10-31T02:23:00;9.00;91.20
1021;DHT22;499;42.648;23.270;2023-10-31T02:26:04;9.10;96.50
1021;DHT22;499;42.648;23.270;2023-10-31T02:28:53;9.10;99.60
1021;DHT22;499;42.648;23.270;2023-10-31T02:31:30;9.20;99.90
1021;DHT22;499;42.648;23.270;2023-10-31T02:34:15;9.20;99.90
1021;DHT22;499;42.648;23.270;2023-10-31T02:36:57;9.10;99.50
1021;DHT22;499;42.648;23.270;2023-10-31T02:40:04;9.10;98.70
1021;DHT22;499;42.648;23.270;2023-10-31T02:42:46;9.10;99.90
1021;DHT22;499;42.648;23.270;2023-10-31T02:45:18;9.10;99.90
1021;DHT22;499;42.648;23.270;2023-10-31T02:47:57;9.10;99.90
1021;DHT22;499;42.648;23.270;2023-10-31T02:50:33;9.00;99.90
1021;DHT22;499;42.648;23.270;2023-10-31T02:53:18;9.00;99.90
1021;DHT22;499;42.648;23.270;2023-10-31T02:56:22;9.00;99.90
1021;DHT22;499;42.648;23.270;2023-10-31T02:59:16;9.00;99.90
1021;DHT22;499;42.648;23.270;2023-10-31T03:02:12;9.00;99.20
1021;DHT22;499;42.648;23.270;2023-10-31T03:04:49;8.90;97.70
1021;DHT22;499;42.648;23.270;2023-10-31T03:07:36;8.90;97.10
1021;DHT22;499;42.648;23.270;2023-10-31T03:10:12;8.90;98.10
1021;DHT22;499;42.648;23.270;2023-10-31T03:13:15;8.90;98.90
1021;DHT22;499;42.648;23.270;2023-10-31T03:16:06;9.00;99.20
1021;DHT22;499;42.648;23.270;2023-10-31T03:18:47;8.90;99.90
1021;DHT22;499;42.648;23.270;2023-10-31T03:21:32;9.10;99.90
1021;DHT22;499;42.648;23.270;2023-10-31T03:24:02;9.00;99.90
1021;DHT22;499;42.648;23.270;2023-10-31T03:26:39;9.00;99.90
1021;DHT22;499;42.648;23.270;2023-10-31T03:29:28;9.00;99.90
1021;DHT22;499;42.648;23.270;2023-10-31T03:32:08;9.00;99.90
1021;DHT22;499;42.648;23.270;2023-10-31T03:35:06;9.00;99.90
1021;DHT22;499;42.648;23.270;2023-10-31T03:37:42;9.00;99.90
1021;DHT22;499;42.648;23.270;2023-10-31T03:40:25;9.00;99.90
1021;DHT22;499;42.648;23.270;2023-10-31T03:43:09;9.00;99.90
1021;DHT22;499;42.648;23.270;2023-10-31T03:46:05;9.10;99.90
1021;DHT22;499;42.648;23.270;2023-10-31T03:48:51;9.20;99.90
1021;DHT22;499;42.648;23.270;2023-10-31T03:51:30;9.30;99.90
1021;DHT22;499;42.648;23.270;2023-10-31T03:54:11;9.20;99.90
1021;DHT22;499;42.648;23.270;2023-10-31T03:56:59;9.20;99.90
1021;DHT22;499;42.648;23.270;2023-10-31T03:59:40;9.30;99.90
1021;DHT22;499;42.648;23.270;2023-10-31T04:02:25;9.20;99.90
1021;DHT22;499;42.648;23.270;2023-10-31T04:05:03;9.10;99.90
1021;DHT22;499;42.648;23.270;2023-10-31T04:07:44;9.20;99.90
1021;DHT22;499;42.648;23.270;2023-10-31T04:10:20;9.30;99.90
1021;DHT22;499;42.648;23.270;2023-10-31T04:12:55;9.20;99.90
1021;DHT22;499;42.648;23.270;2023-10-31T04:15:37;9.20;99.90
1021;DHT22;499;42.648;23.270;2023-10-31T04:18:21;9.30;99.10
1021;DHT22;499;42.648;23.270;2023-10-31T04:21:02;9.10;97.80
1021;DHT22;499;42.648;23.270;2023-10-31T04:23:47;8.90;98.80
1021;DHT22;499;42.648;23.270;2023-10-31T04:26:25;9.00;99.70
1021;DHT22;499;42.648;23.270;2023-10-31T04:29:00;8.80;98.50
1021;DHT22;499;42.648;23.270;2023-10-31T04:31:40;8.60;99.90
1021;DHT22;499;42.648;23.270;2023-10-31T04:34:23;8.60;99.90
1021;DHT22;499;42.648;23.270;2023-10-31T04:36:56;8.50;99.90
1021;DHT22;499;42.648;23.270;2023-10-31T04:39:36;8.50;99.90
1021;DHT22;499;42.648;23.270;2023-10-31T04:42:15;8.50;99.90
1021;DHT22;499;42.648;23.270;2023-10-31T04:44:57;8.60;99.90
1021;DHT22;499;42.648;23.270;2023-10-31T04:47:32;8.50;99.90
1021;DHT22;499;42.648;23.270;2023-10-31T04:50:18;8.50;99.90
1021;DHT22;499;42.648;23.270;2023-10-31T04:52:57;8.50;99.90
1021;DHT22;499;42.648;23.270;2023-10-31T04:55:39;8.50;99.90
1021;DHT22;499;42.648;23.270;2023-10-31T04:58:26;8.50;99.90
1021;DHT22;499;42.648;23.270;2023-10-31T05:01:21;8.50;99.90
1021;DHT22;499;42.648;23.270;2023-10-31T05:04:14;8.50;99.90
1021;DHT22;499;42.648;23.270;2023-10-31T05:07:13;8.50;99.90
1021;DHT22;499;42.648;23.270;2023-10-31T05:09:57;8.50;99.90
1021;DHT22;499;42.648;23.270;2023-10-31T05:12:42;8.70;99.90
1021;DHT22;499;42.648;23.270;2023-10-31T05:15:33;8.60;99.90
1021;DHT22;499;42.648;23.270;2023-10-31T05:18:13;8.50;99.90
1021;DHT22;499;42.648;23.270;2023-10-31T05:21:02;8.60;99.90
1021;DHT22;499;42.648;23.270;2023-10-31T05:23:44;8.50;99.90
1021;DHT22;499;42.648;23.270;2023-10-31T05:26:31;8.60;99.90
1021;DHT22;499;42.648;23.270;2023-10-31T05:29:20;8.70;99.90
1021;DHT22;499;42.648;23.270;2023-10-31T05:32:06;8.80;99.90
1021;DHT22;499;42.648;23.270;2023-10-31T05:34:46;8.90;99.90
1021;DHT22;499;42.648;23.270;2023-10-31T05:37:21;8.90;99.90
1021;DHT22;499;42.648;23.270;2023-10-31T05:40:04;8.70;99.90
1021;DHT22;499;42.648;23.270;2023-10-31T05:42:39;8.60;99.90
1021;DHT22;499;42.648;23.270;2023-10-31T05:45:12;8.70;99.90
1021;DHT22;499;42.648;23.270;2023-10-31T05:47:47;8.80;99.90
1021;DHT22;499;42.648;23.270;2023-10-31T05:50:25;9.00;99.90
1021;DHT22;499;42.648;23.270;2023-10-31T05:53:04;9.00;99.90
1021;DHT22;499;42.648;23.270;2023-10-31T05:55:47;9.10;99.90
1021;DHT22;499;42.648;23.270;2023-10-31T05:58:31;9.00;99.90
1021;DHT22;499;42.648;23.270;2023-10-31T06:01:11;9.10;99.90
1021;DHT22;499;42.648;23.270;2023-10-31T06:03:48;9.10;99.90
1021;DHT22;499;42.648;23.270;2023-10-31T06:06:36;9.30;99.90
1021;DHT22;499;42.648;23.270;2023-10-31T06:09:15;9.50;99.90
1021;DHT22;499;42.648;23.270;2023-10-31T06:11:58;9.60;99.90
1021;DHT22;499;42.648;23.270;2023-10-31T06:14:36;9.70;99.90
1021;DHT22;499;42.648;23.270;2023-10-31T06:17:15;9.60;99.90
1021;DHT22;499;42.648;23.270;2023-10-31T06:19:52;9.70;99.90
1021;DHT22;499;42.648;23.270;2023-10-31T06:22:30;9.80;99.10
1021;DHT22;499;42.648;23.270;2023-10-31T06:25:07;10.00;97.80
1021;DHT22;499;42.648;23.270;2023-10-31T06:27:45;10.00;97.20
1021;DHT22;499;42.648;23.270;2023-10-31T06:30:18;10.10;97.20
1021;DHT22;499;42.648;23.270;2023-10-31T06:32:54;10.00;96.60
1021;DHT22;499;42.648;23.270;2023-10-31T06:35:33;10.30;96.20
1021;DHT22;499;42.648;23.270;2023-10-31T06:38:34;10.30;95.60
1021;DHT22;499;42.648;23.270;2023-10-31T06:41:42;10.50;95.20
1021;DHT22;499;42.648;23.270;2023-10-31T06:44:46;10.60;94.70
1021;DHT22;499;42.648;23.270;2023-10-31T06:47:27;10.70;94.00
1021;DHT22;499;42.648;23.270;2023-10-31T06:50:25;10.80;94.40
1021;DHT22;499;42.648;23.270;2023-10-31T06:53:55;11.10;94.20
1021;DHT22;499;42.648;23.270;2023-10-31T06:57:00;11.20;93.20
1021;DHT22;499;42.648;23.270;2023-10-31T07:00:06;11.30;92.70
1021;DHT22;499;42.648;23.270;2023-10-31T07:03:34;11.50;92.40
1021;DHT22;499;42.648;23.270;2023-10-31T07:06:39;11.70;89.10
1021;DHT22;499;42.648;23.270;2023-10-31T07:09:45;11.80;86.50
1021;DHT22;499;42.648;23.270;2023-10-31T07:12:29;11.80;88.70
1021;DHT22;499;42.648;23.270;2023-10-31T07:19:06;12.10;85.70
1021;DHT22;499;42.648;23.270;2023-10-31T07:22:02;12.10;84.50
1021;DHT22;499;42.648;23.270;2023-10-31T07:24:58;12.10;86.30
1021;DHT22;499;42.648;23.270;2023-10-31T07:28:25;12.30;81.10
1021;DHT22;499;42.648;23.270;2023-10-31T07:31:08;12.40;80.00
1021;DHT22;499;42.648;23.270;2023-10-31T07:33:50;12.30;81.50
1021;DHT22;499;42.648;23.270;2023-10-31T07:36:50;12.40;80.50
1021;DHT22;499;42.648;23.270;2023-10-31T07:39:45;12.50;81.90
1021;DHT22;499;42.648;23.270;2023-10-31T07:42:30;12.70;78.70
1021;DHT22;499;42.648;23.270;2023-10-31T07:45:21;12.80;74.70
1021;DHT22;499;42.648;23.270;2023-10-31T07:48:34;12.90;72.80
1021;DHT22;499;42.648;23.270;2023-10-31T07:51:33;12.90;73.10
1021;DHT22;499;42.648;23.270;2023-10-31T07:54:56;12.80;72.80
1021;DHT22;499;42.648;23.270;2023-10-31T07:58:05;13.10;74.20
1021;DHT22;499;42.648;23.270;2023-10-31T08:01:13;13.00;73.40
1021;DHT22;499;42.648;23.270;2023-10-31T08:04:33;13.10;74.30
1021;DHT22;499;42.648;23.270;2023-10-31T08:07:49;13.30;74.40
1021;DHT22;499;42.648;23.270;2023-10-31T08:10:58;13.50;71.00
1021;DHT22;499;42.648;23.270;2023-10-31T08:13:53;13.60;68.30
1021;DHT22;499;42.648;23.270;2023-10-31T08:16:42;13.70;68.60
1021;DHT22;499;42.648;23.270;2023-10-31T08:19:32;13.80;69.00
1021;DHT22;499;42.648;23.270;2023-10-31T08:22:29;13.90;66.40
1021;DHT22;499;42.648;23.270;2023-10-31T08:25:28;13.90;62.30
1021;DHT22;499;42.648;23.270;2023-10-31T08:28:18;14.10;65.70
1021;DHT22;499;42.648;23.270;2023-10-31T08:31:01;14.30;60.90
1021;DHT22;499;42.648;23.270;2023-10-31T08:33:50;14.50;55.80
1021;DHT22;499;42.648;23.270;2023-10-31T08:36:55;14.60;55.10
1021;DHT22;499;42.648;23.270;2023-10-31T08:40:08;14.50;56.20
1021;DHT22;499;42.648;23.270;2023-10-31T08:42:58;14.80;53.30
1021;DHT22;499;42.648;23.270;2023-10-31T08:45:47;15.00;46.80
1021;DHT22;499;42.648;23.270;2023-10-31T08:48:17;15.30;42.50
1021;DHT22;499;42.648;23.270;2023-10-31T08:51:08;15.30;41.40
1021;DHT22;499;42.648;23.270;2023-10-31T08:54:18;15.30;43.20
1021;DHT22;499;42.648;23.270;2023-10-31T08:57:03;15.40;39.20
1021;DHT22;499;42.648;23.270;2023-10-31T08:59:49;15.50;34.80
1021;DHT22;499;42.648;23.270;2023-10-31T09:02:35;15.60;33.90
1021;DHT22;499;42.648;23.270;2023-10-31T09:05:24;15.80;32.30
1021;DHT22;499;42.648;23.270;2023-10-31T09:08:11;15.80;28.70
1021;DHT22;499;42.648;23.270;2023-10-31T09:10:55;16.00;27.50
1021;DHT22;499;42.648;23.270;2023-10-31T09:13:34;16.00;26.40
1021;DHT22;499;42.648;23.270;2023-10-31T09:16:20;16.20;24.80
1021;DHT22;499;42.648;23.270;2023-10-31T09:19:33;16.20;22.90
1021;DHT22;499;42.648;23.270;2023-10-31T09:22:26;16.30;22.10
1021;DHT22;499;42.648;23.270;2023-10-31T09:25:04;16.50;20.40
1021;DHT22;499;42.648;23.270;2023-10-31T09:27:45;16.60;21.10
1021;DHT22;499;42.648;23.270;2023-10-31T09:30:27;16.60;20.60
1021;DHT22;499;42.648;23.270;2023-10-31T09:33:16;16.60;20.10
1021;DHT22;499;42.648;23.270;2023-10-31T09:35:57;16.70;20.00
1021;DHT22;499;42.648;23.270;2023-10-31T09:38:33;16.80;20.90
1021;DHT22;499;42.648;23.270;2023-10-31T09:41:15;16.90;20.80
1021;DHT22;499;42.648;23.270;2023-10-31T09:44:01;17.00;21.30
1021;DHT22;499;42.648;23.270;2023-10-31T09:46:57;17.10;20.30
1021;DHT22;499;42.648;23.270;2023-10-31T09:49:52;17.00;20.20
1021;DHT22;499;42.648;23.270;2023-10-31T09:52:58;17.20;20.30
1021;DHT22;499;42.648;23.270;2023-10-31T09:55:45;17.30;19.70
1021;DHT22;499;42.648;23.270;2023-10-31T09:58:33;17.50;19.50
1021;DHT22;499;42.648;23.270;2023-10-31T10:01:31;17.60;19.40
1021;DHT22;499;42.648;23.270;2023-10-31T10:04:05;17.60;18.50
1021;DHT22;499;42.648;23.270;2023-10-31T10:06:57;17.70;18.60
1021;DHT22;499;42.648;23.270;2023-10-31T10:10:06;17.80;18.30
1021;DHT22;499;42.648;23.270;2023-10-31T10:13:15;17.90;17.70
1021;DHT22;499;42.648;23.270;2023-10-31T10:16:06;17.70;17.70
1021;DHT22;499;42.648;23.270;2023-10-31T10:18:52;18.10;17.40
1021;DHT22;499;42.648;23.270;2023-10-31T10:21:28;18.20;17.00
1021;DHT22;499;42.648;23.270;2023-10-31T10:24:35;18.40;16.80
1021;DHT22;499;42.648;23.270;2023-10-31T10:27:27;18.40;16.50
1021;DHT22;499;42.648;23.270;2023-10-31T10:30:07;18.50;17.20
1021;DHT22;499;42.648;23.270;2023-10-31T10:32:49;18.60;15.80
1021;DHT22;499;42.648;23.270;2023-10-31T10:35:39;18.60;15.80
1021;DHT22;499;42.648;23.270;2023-10-31T10:38:21;18.80;15.60
1021;DHT22;499;42.648;23.270;2023-10-31T10:40:53;18.90;15.00
1021;DHT22;499;42.648;23.270;2023-10-31T10:43:29;18.90;14.40
1021;DHT22;499;42.648;23.270;2023-10-31T10:46:09;19.00;14.70
1021;DHT22;499;42.648;23.270;2023-10-31T10:48:51;19.00;14.60
1021;DHT22;499;42.648;23.270;2023-10-31T10:51:43;19.10;14.90
1021;DHT22;499;42.648;23.270;2023-10-31T10:54:19;19.20;13.60
1021;DHT22;499;42.648;23.270;2023-10-31T10:56:59;19.10;14.10
1021;DHT22;499;42.648;23.270;2023-10-31T10:59:46;19.40;13.70
1021;DHT22;499;42.648;23.270;2023-10-31T11:02:21;19.40;13.80
1021;DHT22;499;42.648;23.270;2023-10-31T11:05:04;19.60;13.20
1021;DHT22;499;42.648;23.270;2023-10-31T11:07:44;19.60;12.80
1021;DHT22;499;42.648;23.270;2023-10-31T11:10:15;19.80;11.80
1021;DHT22;499;42.648;23.270;2023-10-31T11:12:54;19.90;11.80
1021;DHT22;499;42.648;23.270;2023-10-31T11:15:34;19.80;11.70
1021;DHT22;499;42.648;23.270;2023-10-31T11:18:09;19.80;11.10
1021;DHT22;499;42.648;23.270;2023-10-31T11:20:53;19.70;11.30
1021;DHT22;499;42.648;23.270;2023-10-31T11:23:57;20.00;11.40
1021;DHT22;499;42.648;23.270;2023-10-31T11:26:59;20.00;10.00
1021;DHT22;499;42.648;23.270;2023-10-31T11:29:54;20.00;10.00
1021;DHT22;499;42.648;23.270;2023-10-31T11:32:44;20.10;11.50
1021;DHT22;499;42.648;23.270;2023-10-31T11:35:29;20.10;11.40
1021;DHT22;499;42.648;23.270;2023-10-31T11:38:27;20.30;10.20
1021;DHT22;499;42.648;23.270;2023-10-31T11:41:04;20.30;10.20
1021;DHT22;499;42.648;23.270;2023-10-31T11:43:59;20.20;10.40
1021;DHT22;499;42.648;23.270;2023-10-31T11:46:47;20.20;9.40
1021;DHT22;499;42.648;23.270;2023-10-31T11:49:59;19.90;8.90
1021;DHT22;499;42.648;23.270;2023-10-31T11:56:07;20.30;9.20
1021;DHT22;499;42.648;23.270;2023-10-31T11:58:43;20.10;9.60
1021;DHT22;499;42.648;23.270;2023-10-31T12:01:28;20.10;9.30
1021;DHT22;499;42.648;23.270;2023-10-31T12:04:27;20.10;9.20
1021;DHT22;499;42.648;23.270;2023-10-31T12:07:09;20.10;10.10
1021;DHT22;499;42.648;23.270;2023-10-31T12:09:58;20.20;9.40
1021;DHT22;499;42.648;23.270;2023-10-31T12:12:35;20.30;8.70
1021;DHT22;499;42.648;23.270;2023-10-31T12:15:17;20.30;8.40
1021;DHT22;499;42.648;23.270;2023-10-31T12:18:07;20.30;6.00
1021;DHT22;499;42.648;23.270;2023-10-31T12:20:57;20.30;6.00
1021;DHT22;499;42.648;23.270;2023-10-31T12:23:48;20.40;7.00
1021;DHT22;499;42.648;23.270;2023-10-31T12:26:42;20.60;6.20
1021;DHT22;499;42.648;23.270;2023-10-31T12:29:31;20.80;6.10
1021;DHT22;499;42.648;23.270;2023-10-31T12:32:27;20.80;5.90
1021;DHT22;499;42.648;23.270;2023-10-31T12:35:21;20.80;5.30
1021;DHT22;499;42.648;23.270;2023-10-31T12:38:59;20.80;5.20
1021;DHT22;499;42.648;23.270;2023-10-31T12:42:06;20.80;4.60
1021;DHT22;499;42.648;23.270;2023-10-31T12:45:21;20.70;4.20
1021;DHT22;499;42.648;23.270;2023-10-31T12:48:23;20.60;5.10
1021;DHT22;499;42.648;23.270;2023-10-31T12:51:14;20.60;4.40
1021;DHT22;499;42.648;23.270;2023-10-31T12:54:08;20.60;5.20
1021;DHT22;499;42.648;23.270;2023-10-31T12:56:59;20.60;4.20
1021;DHT22;499;42.648;23.270;2023-10-31T12:59:26;20.50;3.80
1021;DHT22;499;42.648;23.270;2023-10-31T13:01:58;20.60;3.90
1021;DHT22;499;42.648;23.270;2023-10-31T13:04:37;20.60;3.90
1021;DHT22;499;42.648;23.270;2023-10-31T13:07:25;20.60;3.50
1021;DHT22;499;42.648;23.270;2023-10-31T13:10:18;20.60;4.60
1021;DHT22;499;42.648;23.270;2023-10-31T13:12:50;20.50;3.30
1021;DHT22;499;42.648;23.270;2023-10-31T13:15:30;20.60;3.40
1021;DHT22;499;42.648;23.270;2023-10-31T13:18:50;20.80;3.90
1021;DHT22;499;42.648;23.270;2023-10-31T13:21:26;20.80;4.80
1021;DHT22;499;42.648;23.270;2023-10-31T13:24:06;21.00;6.50
1021;DHT22;499;42.648;23.270;2023-10-31T13:26:57;21.00;5.90
1021;DHT22;499;42.648;23.270;2023-10-31T13:29:54;21.10;5.90
1021;DHT22;499;42.648;23.270;2023-10-31T13:32:38;21.10;4.00
1021;DHT22;499;42.648;23.270;2023-10-31T13:35:34;21.10;5.00
1021;DHT22;499;42.648;23.270;2023-10-31T13:39:04;21.10;6.60
1021;DHT22;499;42.648;23.270;2023-10-31T13:41:59;21.30;6.20
1021;DHT22;499;42.648;23.270;2023-10-31T13:44:57;21.40;6.80
1021;DHT22;499;42.648;23.270;2023-10-31T13:47:59;21.30;3.90
1021;DHT22;499;42.648;23.270;2023-10-31T13:51:28;21.10;4.30
1021;DHT22;499;42.648;23.270;2023-10-31T13:54:27;20.90;4.80
1021;DHT22;499;42.648;23.270;2023-10-31T13:57:24;20.80;4.20
1021;DHT22;499;42.648;23.270;2023-10-31T14:00:29;20.60;4.30
1021;DHT22;499;42.648;23.270;2023-10-31T14:03:23;20.00;9.10
1021;DHT22;499;42.648;23.270;2023-10-31T14:06:08;19.60;9.70
1021;DHT22;499;42.648;23.270;2023-10-31T14:12:35;19.20;10.60
1021;DHT22;499;42.648;23.270;2023-10-31T14:15:28;19.30;11.80
1021;DHT22;499;42.648;23.270;2023-10-31T14:18:30;19.30;11.20
1021;DHT22;499;42.648;23.270;2023-10-31T14:21:35;19.00;12.00
1021;DHT22;499;42.648;23.270;2023-10-31T14:24:32;18.50;12.60
1021;DHT22;499;42.648;23.270;2023-10-31T14:27:11;18.30;12.40
1021;DHT22;499;42.648;23.270;2023-10-31T14:30:25;18.20;12.90
1021;DHT22;499;42.648;23.270;2023-10-31T14:33:09;17.90;11.90
1021;DHT22;499;42.648;23.270;2023-10-31T14:35:58;17.60;12.30
1021;DHT22;499;42.648;23.270;2023-10-31T14:38:44;17.50;13.00
1021;DHT22;499;42.648;23.270;2023-10-31T14:41:19;17.30;12.90
1021;DHT22;499;42.648;23.270;2023-10-31T14:43:49;17.20;14.10
1021;DHT22;499;42.648;23.270;2023-10-31T14:46:21;17.00;13.00
1021;DHT22;499;42.648;23.270;2023-10-31T14:48:58;16.90;13.00
1021;DHT22;499;42.648;23.270;2023-10-31T14:51:26;16.80;12.50
1021;DHT22;499;42.648;23.270;2023-10-31T14:53:57;16.70;11.90
1021;DHT22;499;42.648;23.270;2023-10-31T14:56:27;16.70;11.90
1021;DHT22;499;42.648;23.270;2023-10-31T14:58:55;16.60;12.60
1021;DHT22;499;42.648;23.270;2023-10-31T15:01:25;16.50;12.80
1021;DHT22;499;42.648;23.270;2023-10-31T15:03:52;16.40;12.70
1021;DHT22;499;42.648;23.270;2023-10-31T15:06:28;16.40;13.10
1021;DHT22;499;42.648;23.270;2023-10-31T15:09:23;16.30;13.20
1021;DHT22;499;42.648;23.270;2023-10-31T15:12:02;16.30;13.00
1021;DHT22;499;42.648;23.270;2023-10-31T15:14:58;16.20;13.50
1021;DHT22;499;42.648;23.270;2023-10-31T15:17:47;16.10;14.30
1021;DHT22;499;42.648;23.270;2023-10-31T15:20:28;16.00;14.60
1021;DHT22;499;42.648;23.270;2023-10-31T15:23:24;16.00;14.40
1021;DHT22;499;42.648;23.270;2023-10-31T15:26:09;16.00;14.30
1021;DHT22;499;42.648;23.270;2023-10-31T15:29:10;16.00;14.00
1021;DHT22;499;42.648;23.270;2023-10-31T15:31:55;15.90;14.20
1021;DHT22;499;42.648;23.270;2023-10-31T15:34:50;16.00;15.10
1021;DHT22;499;42.648;23.270;2023-10-31T15:41:03;15.90;15.20
1021;DHT22;499;42.648;23.270;2023-10-31T15:44:11;15.90;15.40
1021;DHT22;499;42.648;23.270;2023-10-31T15:47:20;15.80;15.70
1021;DHT22;499;42.648;23.270;2023-10-31T15:50:15;15.70;16.80
1021;DHT22;499;42.648;23.270;2023-10-31T15:53:07;15.70;17.40
1021;DHT22;499;42.648;23.270;2023-10-31T15:56:31;15.60;16.80
1021;DHT22;499;42.648;23.270;2023-10-31T15:59:29;15.60;17.50
1021;DHT22;499;42.648;23.270;2023-10-31T16:02:28;15.60;17.90
1021;DHT22;499;42.648;23.270;2023-10-31T16:05:24;15.60;17.40
1021;DHT22;499;42.648;23.270;2023-10-31T16:08:15;15.60;18.20
1021;DHT22;499;42.648;23.270;2023-10-31T16:11:26;15.50;18.80
1021;DHT22;499;42.648;23.270;2023-10-31T16:14:10;15.50;19.80
1021;DHT22;499;42.648;23.270;2023-10-31T16:16:59;15.60;20.40
1021;DHT22;499;42.648;23.270;2023-10-31T16:19:41;15.60;22.10
1021;DHT22;499;42.648;23.270;2023-10-31T16:22:30;15.60;22.10
1021;DHT22;499;42.648;23.270;2023-10-31T16:25:13;15.60;23.20
1021;DHT22;499;42.648;23.270;2023-10-31T16:27:54;15.70;23.20
1021;DHT22;499;42.648;23.270;2023-10-31T16:30:32;15.60;24.40
1021;DHT22;499;42.648;23.270;2023-10-31T16:33:09;15.60;25.20
1021;DHT22;499;42.648;23.270;2023-10-31T16:35:46;15.60;26.00
1021;DHT22;499;42.648;23.270;2023-10-31T16:38:29;15.60;27.00
1021;DHT22;499;42.648;23.270;2023-10-31T16:41:08;15.70;27.10
1021;DHT22;499;42.648;23.270;2023-10-31T16:43:50;15.70;26.50
1021;DHT22;499;42.648;23.270;2023-10-31T16:46:31;15.60;27.00
1021;DHT22;499;42.648;23.270;2023-10-31T16:49:07;15.60;27.00
1021;DHT22;499;42.648;23.270;2023-10-31T16:51:49;15.50;26.90
1021;DHT22;499;42.648;23.270;2023-10-31T16:54:31;15.50;25.30
1021;DHT22;499;42.648;23.270;2023-10-31T16:57:07;15.20;25.30
1021;DHT22;499;42.648;23.270;2023-10-31T16:59:40;15.50;26.60
1021;DHT22;499;42.648;23.270;2023-10-31T17:02:22;15.60;25.60
1021;DHT22;499;42.648;23.270;2023-10-31T17:05:03;15.60;24.90
1021;DHT22;499;42.648;23.270;2023-10-31T17:07:46;15.60;25.50
1021;DHT22;499;42.648;23.270;2023-10-31T17:10:25;15.60;25.10
1021;DHT22;499;42.648;23.270;2023-10-31T17:13:02;15.60;24.90
1021;DHT22;499;42.648;23.270;2023-10-31T17:15:39;15.60;23.70
1021;DHT22;499;42.648;23.270;2023-10-31T17:18:18;15.60;24.60
1021;DHT22;499;42.648;23.270;2023-10-31T17:20:57;15.60;25.20
1021;DHT22;499;42.648;23.270;2023-10-31T17:23:35;15.50;25.10
1021;DHT22;499;42.648;23.270;2023-10-31T17:26:30;15.60;25.80
1021;DHT22;499;42.648;23.270;2023-10-31T17:29:14;15.50;25.70
1021;DHT22;499;42.648;23.270;2023-10-31T17:31:53;15.50;26.00
1021;DHT22;499;42.648;23.270;2023-10-31T17:34:43;15.40;26.10
1021;DHT22;499;42.648;23.270;2023-10-31T17:37:31;15.40;25.90
1021;DHT22;499;42.648;23.270;2023-10-31T17:40:15;15.40;25.30
1021;DHT22;499;42.648;23.270;2023-10-31T17:43:15;15.40;24.90
1021;DHT22;499;42.648;23.270;2023-10-31T17:45:58;15.40;25.50
1021;DHT22;499;42.648;23.270;2023-10-31T17:48:44;15.50;24.90
1021;DHT22;499;42.648;23.270;2023-10-31T17:51:39;15.50;25.20
1021;DHT22;499;42.648;23.270;2023-10-31T17:54:36;15.50;26.30
1021;DHT22;499;42.648;23.270;2023-10-31T17:57:30;15.50;26.60
1021;DHT22;499;42.648;23.270;2023-10-31T18:00:16;15.40;27.10
1021;DHT22;499;42.648;23.270;2023-10-31T18:02:56;15.30;26.20
1021;DHT22;499;42.648;23.270;2023-10-31T18:05:46;15.30;27.70
1021;DHT22;499;42.648;23.270;2023-10-31T18:08:35;15.30;27.30
1021;DHT22;499;42.648;23.270;2023-10-31T18:11:25;15.20;27.50
1021;DHT22;499;42.648;23.270;2023-10-31T18:14:09;15.30;28.50
1021;DHT22;499;42.648;23.270;2023-10-31T18:16:59;15.20;29.90
1021;DHT22;499;42.648;23.270;2023-10-31T18:19:32;15.40;29.50
1021;DHT22;499;42.648;23.270;2023-10-31T18:22:01;15.20;30.60
1021;DHT22;499;42.648;23.270;2023-10-31T18:24:33;15.10;30.50
1021;DHT22;499;42.648;23.270;2023-10-31T18:27:09;15.20;30.60
1021;DHT22;499;42.648;23.270;2023-10-31T18:29:53;15.00;31.20
1021;DHT22;499;42.648;23.270;2023-10-31T18:32:39;15.00;32.80
1021;DHT22;499;42.648;23.270;2023-10-31T18:35:08;14.90;32.90